Claudville, Virginia
Current Conditions -  °F | °C
As of 3:55 PM on Saturday 25 Oct 2014 (Local Time) from KMWK Reporting Station
Clear Clear  
Wind Chill: 74°   Ceiling: Unl
Heat Index: 74°   Visibility: 10mi
Dew Point: 34°   Wind: 3mph
Humidity: 23%   Direction: 240°WSW
Pressure: 29.95"   Gusts: NA
Location:  36.59°N, 80.42°W
Report Text: KMWK 251955Z AUTO 24003KT 10SM CLR 23/01 A2995 RMK AO2 T02310009
Loading
Personal Weather Stations






























Interactive Weather Map
Tropical Storm Tracking
New forecast layout! Learn more

10-Day Weather Forecast

Advertisements
Track Severe Weather on mobile